createdAt,value
2018-02-25T00:00:46.949Z,9.30
2018-02-25T00:03:15.117Z,5.03
2018-02-25T00:05:43.358Z,6.60
2018-02-25T00:08:11.497Z,9.63
2018-02-25T00:10:39.639Z,6.77
2018-02-25T00:13:07.745Z,7.90
2018-02-25T00:15:36.584Z,9.00
2018-02-25T00:18:06.360Z,6.43
2018-02-25T00:20:34.501Z,7.07
2018-02-25T00:23:02.661Z,7.20
2018-02-25T00:25:30.783Z,10.40
2018-02-25T00:27:58.893Z,7.03
2018-02-25T00:30:27.003Z,8.07
2018-02-25T00:32:55.135Z,5.77
2018-02-25T00:35:23.316Z,6.50
2018-02-25T00:37:51.418Z,6.37
2018-02-25T00:40:20.283Z,7.27
2018-02-25T00:42:48.409Z,5.90
2018-02-25T00:45:16.589Z,7.00
2018-02-25T00:47:44.703Z,7.33
2018-02-25T00:50:12.905Z,8.27
2018-02-25T00:52:41.131Z,8.10
2018-02-25T00:55:09.360Z,7.47
2018-02-25T00:57:37.626Z,6.73
2018-02-25T01:00:06.586Z,7.83
2018-02-25T01:02:34.700Z,8.33
2018-02-25T01:05:02.821Z,7.77
2018-02-25T01:07:30.938Z,8.47
2018-02-25T01:09:59.058Z,10.07
2018-02-25T01:12:27.194Z,7.47
2018-02-25T01:14:55.341Z,7.83
2018-02-25T01:17:23.558Z,8.67
2018-02-25T01:19:51.746Z,7.87
2018-02-25T01:22:19.922Z,6.23
2018-02-25T01:24:48.021Z,7.13
2018-02-25T01:27:16.146Z,8.80
2018-02-25T01:29:44.268Z,7.47
2018-02-25T01:32:12.369Z,7.10
2018-02-25T01:34:40.524Z,8.73
2018-02-25T01:37:09.403Z,9.60
2018-02-25T01:39:37.611Z,7.33
2018-02-25T01:42:05.720Z,13.13
2018-02-25T01:44:33.891Z,7.80
2018-02-25T01:47:01.987Z,10.17
2018-02-25T01:49:30.105Z,9.47
2018-02-25T01:51:58.199Z,10.10
2018-02-25T01:54:26.373Z,9.20
2018-02-25T01:56:54.543Z,9.67
2018-02-25T01:59:22.793Z,11.40
2018-02-25T02:01:51.171Z,14.07
2018-02-25T02:04:20.045Z,8.70
2018-02-25T02:06:48.223Z,11.20
2018-02-25T02:09:16.402Z,10.67
2018-02-25T02:11:45.293Z,8.03
2018-02-25T02:14:13.399Z,11.57
2018-02-25T02:16:41.589Z,13.10
2018-02-25T02:19:09.737Z,15.00
2018-02-25T02:34:33.442Z,8.47
2018-02-25T02:37:01.646Z,14.17
2018-02-25T02:39:29.875Z,11.43
2018-02-25T02:41:58.086Z,13.13
2018-02-25T02:44:26.419Z,15.13
2018-02-25T02:46:54.639Z,11.47
2018-02-25T02:49:22.803Z,15.23
2018-02-25T02:51:50.938Z,10.93
2018-02-25T02:54:19.053Z,15.23
2018-02-25T02:56:47.895Z,12.13
2018-02-25T02:59:16.025Z,11.90
2018-02-25T03:01:44.180Z,12.17
2018-02-25T03:04:12.301Z,12.93
2018-02-25T03:06:40.449Z,11.40
2018-02-25T03:09:08.569Z,13.23
2018-02-25T03:11:40.648Z,11.87
2018-02-25T03:14:09.511Z,14.60
2018-02-25T03:16:37.644Z,12.17
2018-02-25T03:19:06.125Z,12.90
2018-02-25T03:21:34.228Z,13.37
2018-02-25T03:24:02.354Z,12.50
2018-02-25T03:26:31.373Z,13.23
2018-02-25T03:28:59.640Z,16.10
2018-02-25T03:31:27.985Z,15.67
2018-02-25T03:33:56.228Z,11.97
2018-02-25T03:36:24.413Z,15.13
2018-02-25T03:38:52.846Z,18.37
2018-02-25T03:41:21.741Z,16.83
2018-02-25T03:43:49.867Z,15.43
2018-02-25T03:46:18.074Z,12.63
2018-02-25T03:48:46.219Z,17.73
2018-02-25T03:51:14.352Z,17.40
2018-02-25T03:53:42.463Z,17.43
2018-02-25T03:56:10.584Z,15.03
2018-02-25T03:58:38.734Z,16.33
2018-02-25T04:01:06.919Z,17.30
2018-02-25T04:03:35.796Z,12.37
2018-02-25T04:06:03.922Z,13.80
2018-02-25T04:08:32.627Z,14.27
2018-02-25T04:11:00.884Z,13.73
2018-02-25T04:13:29.765Z,19.30
2018-02-25T04:15:57.924Z,17.03
2018-02-25T04:18:26.055Z,15.57
2018-02-25T04:20:54.149Z,16.80
2018-02-25T04:23:22.271Z,17.10
2018-02-25T04:25:50.417Z,16.03
2018-02-25T04:28:18.597Z,15.57
2018-02-25T04:30:46.894Z,15.00
2018-02-25T04:33:15.061Z,14.60
2018-02-25T04:35:43.216Z,21.17
2018-02-25T04:38:11.315Z,16.57
2018-02-25T04:40:39.434Z,14.50
2018-02-25T04:43:07.549Z,16.80
2018-02-25T04:45:35.683Z,16.23
2018-02-25T04:48:03.799Z,15.07
2018-02-25T04:50:31.900Z,16.43
2018-02-25T04:53:00.054Z,17.80
2018-02-25T04:55:28.309Z,22.37
2018-02-25T04:57:56.582Z,15.60
2018-02-25T05:00:24.803Z,18.67
2018-02-25T05:02:53.890Z,17.63
2018-02-25T05:05:22.051Z,12.57
2018-02-25T05:07:50.169Z,15.37
2018-02-25T05:10:18.284Z,18.40
2018-02-25T05:12:46.394Z,19.70
2018-02-25T05:15:14.506Z,17.50
2018-02-25T05:17:42.617Z,20.80
2018-02-25T05:20:10.796Z,17.37
2018-02-25T05:22:39.099Z,17.20
2018-02-25T05:25:07.551Z,13.60
2018-02-25T05:27:35.683Z,19.63
2018-02-25T05:30:03.822Z,13.03
2018-02-25T05:32:31.976Z,15.43
2018-02-25T05:35:00.101Z,16.33
2018-02-25T05:37:28.274Z,14.80
2018-02-25T05:39:56.398Z,14.50
2018-02-25T05:42:24.523Z,14.03
2018-02-25T05:44:52.628Z,17.93
2018-02-25T05:47:20.735Z,15.57
2018-02-25T05:49:48.883Z,18.30
2018-02-25T05:52:17.128Z,16.83
2018-02-25T05:54:45.309Z,16.37
2018-02-25T05:57:13.419Z,22.57
2018-02-25T05:59:41.542Z,18.60
2018-02-25T06:02:09.695Z,15.00
2018-02-25T06:04:42.241Z,19.57
2018-02-25T06:07:10.419Z,14.87
2018-02-25T06:09:38.650Z,21.10
2018-02-25T06:12:07.379Z,21.83
2018-02-25T06:14:35.497Z,15.43
2018-02-25T06:17:03.623Z,13.87
2018-02-25T06:19:31.728Z,15.27
2018-02-25T06:21:59.849Z,20.10
2018-02-25T06:24:27.970Z,18.43
2018-02-25T06:26:56.111Z,19.70
2018-02-25T06:29:24.269Z,15.43
2018-02-25T06:31:52.370Z,14.47
2018-02-25T06:34:20.482Z,15.17
2018-02-25T06:36:48.618Z,15.33
2018-02-25T06:39:16.764Z,19.20
2018-02-25T06:41:44.888Z,15.77
2018-02-25T06:44:13.144Z,17.27
2018-02-25T06:46:42.006Z,15.67
2018-02-25T06:49:10.142Z,18.23
2018-02-25T06:51:38.290Z,15.63
2018-02-25T06:54:06.486Z,16.77
2018-02-25T06:56:35.367Z,20.53
2018-02-25T06:59:03.512Z,16.13
2018-02-25T07:01:31.652Z,15.13
2018-02-25T07:03:59.784Z,13.93
2018-02-25T07:06:28.008Z,16.57
2018-02-25T07:08:56.338Z,17.47
2018-02-25T07:11:24.481Z,16.43
2018-02-25T07:13:52.841Z,15.83
2018-02-25T07:16:21.733Z,15.30
2018-02-25T07:18:49.918Z,19.27
2018-02-25T07:21:18.045Z,15.63
2018-02-25T07:23:46.270Z,13.67
2018-02-25T07:26:14.425Z,16.53
2018-02-25T07:28:43.413Z,17.73
2018-02-25T07:31:11.565Z,17.77
2018-02-25T07:33:39.873Z,12.90
2018-02-25T07:36:08.954Z,16.30
2018-02-25T07:38:37.459Z,18.73
2018-02-25T07:41:05.750Z,14.23
2018-02-25T07:43:34.717Z,11.33
2018-02-25T07:46:03.179Z,17.40
2018-02-25T07:48:31.331Z,11.77
2018-02-25T07:50:59.642Z,15.93
2018-02-25T07:53:27.832Z,13.87
2018-02-25T07:55:55.982Z,16.83
2018-02-25T07:58:24.122Z,12.77
2018-02-25T08:00:52.575Z,11.13
2018-02-25T08:03:31.689Z,12.93
2018-02-25T08:06:01.029Z,10.13
2018-02-25T08:08:29.582Z,12.53
2018-02-25T08:11:06.199Z,11.83
2018-02-25T08:13:34.443Z,14.47
2018-02-25T08:16:02.593Z,14.17
2018-02-25T08:18:30.717Z,15.80
2018-02-25T08:20:58.833Z,9.80
2018-02-25T08:23:27.700Z,19.57
2018-02-25T08:25:55.818Z,13.20
2018-02-25T08:28:23.938Z,12.97
2018-02-25T08:30:52.157Z,12.40
2018-02-25T08:33:20.855Z,12.77
2018-02-25T08:35:49.721Z,10.73
2018-02-25T08:38:17.836Z,16.17
2018-02-25T08:40:45.966Z,10.20
2018-02-25T08:43:14.087Z,12.97
2018-02-25T08:45:42.210Z,14.27
2018-02-25T08:48:10.313Z,14.80
2018-02-25T08:50:38.561Z,11.27
2018-02-25T08:53:06.731Z,14.57
2018-02-25T08:55:34.841Z,8.53
2018-02-25T08:58:02.971Z,9.10
2018-02-25T09:00:31.304Z,12.90
2018-02-25T09:03:00.354Z,12.10
2018-02-25T09:05:31.481Z,9.90
2018-02-25T09:07:59.620Z,11.57
2018-02-25T09:10:27.825Z,13.17
2018-02-25T09:12:56.002Z,11.57
2018-02-25T09:15:24.149Z,13.83
2018-02-25T09:17:52.483Z,11.07
2018-02-25T09:20:20.640Z,11.33
2018-02-25T09:22:48.900Z,13.03
2018-02-25T09:25:17.046Z,9.87
2018-02-25T09:27:45.182Z,10.47
2018-02-25T09:30:14.088Z,12.30
2018-02-25T09:32:42.209Z,10.17
2018-02-25T09:35:10.457Z,11.40
2018-02-25T09:37:38.560Z,8.70
2018-02-25T09:40:06.692Z,8.97
2018-02-25T09:42:34.793Z,11.30
2018-02-25T09:45:02.928Z,13.60
2018-02-25T09:47:31.041Z,9.83
2018-02-25T09:49:59.173Z,11.37
2018-02-25T09:52:27.396Z,11.10
2018-02-25T09:54:55.492Z,15.00
2018-02-25T09:57:23.632Z,10.50
2018-02-25T09:59:51.769Z,8.67
2018-02-25T10:02:19.962Z,10.37
2018-02-25T10:04:48.138Z,13.10
2018-02-25T10:07:16.307Z,9.97
2018-02-25T10:09:44.413Z,10.50
2018-02-25T10:12:12.532Z,10.00
2018-02-25T10:14:40.657Z,9.60
2018-02-25T10:17:08.801Z,11.43
2018-02-25T10:19:37.086Z,11.87
2018-02-25T10:22:05.229Z,9.27
2018-02-25T10:24:33.449Z,11.10
2018-02-25T10:27:01.579Z,10.43
2018-02-25T10:29:29.704Z,14.03
2018-02-25T10:31:57.822Z,10.40
2018-02-25T10:34:25.945Z,8.03
2018-02-25T10:36:54.084Z,9.93
2018-02-25T10:39:22.205Z,12.47
2018-02-25T10:41:50.306Z,8.93
2018-02-25T10:44:18.436Z,10.13
2018-02-25T10:46:46.617Z,9.73
2018-02-25T10:49:14.792Z,9.97
2018-02-25T10:51:42.972Z,9.23
2018-02-25T10:54:11.259Z,7.33
2018-02-25T10:56:39.446Z,8.73
2018-02-25T10:59:07.600Z,11.30
2018-02-25T11:01:36.446Z,10.27
2018-02-25T11:04:04.537Z,9.67
2018-02-25T11:06:32.952Z,6.03
2018-02-25T11:09:01.113Z,7.43
2018-02-25T11:11:29.243Z,9.87
2018-02-25T11:13:57.390Z,11.13
2018-02-25T11:16:25.837Z,6.43
2018-02-25T11:18:53.937Z,9.20
2018-02-25T11:21:22.100Z,8.60
2018-02-25T11:23:50.202Z,9.23
2018-02-25T11:26:18.304Z,9.47
2018-02-25T11:28:46.449Z,8.53
2018-02-25T11:31:14.566Z,7.40
2018-02-25T11:33:43.456Z,11.03
2018-02-25T11:36:11.604Z,7.07
2018-02-25T11:38:39.700Z,9.00
2018-02-25T11:41:07.879Z,7.50
2018-02-25T11:43:35.987Z,6.30
2018-02-25T11:46:04.148Z,8.40
2018-02-25T11:48:32.308Z,7.33
2018-02-25T11:51:00.405Z,7.10
2018-02-25T11:53:28.554Z,8.90
2018-02-25T11:55:56.673Z,8.53
2018-02-25T11:58:24.862Z,7.93
2018-02-25T12:00:53.172Z,8.00
2018-02-25T12:03:21.359Z,7.80
2018-02-25T12:05:49.554Z,8.73
2018-02-25T12:08:17.714Z,7.07
2018-02-25T12:10:45.805Z,9.10
2018-02-25T12:13:13.922Z,9.73
2018-02-25T12:15:42.105Z,6.73
2018-02-25T12:18:10.216Z,9.20
2018-02-25T12:20:38.323Z,9.20
2018-02-25T12:23:06.414Z,7.33
2018-02-25T12:25:34.518Z,7.27
2018-02-25T12:28:02.612Z,7.50
2018-02-25T12:30:31.460Z,7.70
2018-02-25T12:33:00.321Z,6.90
2018-02-25T12:35:28.455Z,7.17
2018-02-25T12:37:56.531Z,9.57
2018-02-25T12:40:24.641Z,7.63
2018-02-25T12:42:52.732Z,7.87
2018-02-25T12:45:20.855Z,8.23
2018-02-25T12:47:48.958Z,9.77
2018-02-25T12:50:17.132Z,8.83
2018-02-25T12:52:45.235Z,7.77
2018-02-25T12:55:13.345Z,8.77
2018-02-25T12:57:41.470Z,7.37
2018-02-25T13:00:13.785Z,9.43
2018-02-25T13:02:41.921Z,6.70
2018-02-25T13:05:10.806Z,8.80
2018-02-25T13:07:38.912Z,7.53
2018-02-25T13:10:07.040Z,9.77
2018-02-25T13:12:35.130Z,6.90
2018-02-25T13:15:03.238Z,9.07
2018-02-25T13:17:31.375Z,8.07
2018-02-25T13:19:59.622Z,9.47
2018-02-25T13:22:27.753Z,7.90
2018-02-25T13:24:55.889Z,10.70
2018-02-25T13:27:24.011Z,9.50
2018-02-25T13:29:52.125Z,8.97
2018-02-25T13:32:20.294Z,7.60
2018-02-25T13:34:48.473Z,8.67
2018-02-25T13:37:16.665Z,8.37
2018-02-25T13:39:44.972Z,11.63
2018-02-25T13:42:13.116Z,9.43
2018-02-25T13:44:41.261Z,9.23
2018-02-25T13:47:09.399Z,10.20
2018-02-25T13:49:37.572Z,9.90
2018-02-25T13:52:05.663Z,9.03
2018-02-25T13:54:33.793Z,11.83
2018-02-25T13:57:04.200Z,9.53
2018-02-25T13:59:40.308Z,9.87
2018-02-25T14:02:08.432Z,8.37
2018-02-25T14:04:40.960Z,8.90
2018-02-25T14:07:09.111Z,9.73
2018-02-25T14:09:37.216Z,7.97
2018-02-25T14:12:05.362Z,7.93
2018-02-25T14:14:33.488Z,7.30
2018-02-25T14:17:01.583Z,9.67
2018-02-25T14:19:29.690Z,7.83
2018-02-25T14:21:57.829Z,8.57
2018-02-25T14:24:27.248Z,9.90
2018-02-25T14:26:55.310Z,8.67
2018-02-25T14:29:23.423Z,8.20
2018-02-25T14:31:51.530Z,9.07
2018-02-25T14:34:19.635Z,10.00
2018-02-25T14:36:47.797Z,9.70
2018-02-25T14:39:15.902Z,8.13
2018-02-25T14:41:44.015Z,9.37
2018-02-25T14:44:12.131Z,7.80
2018-02-25T14:46:40.277Z,11.70
2018-02-25T14:49:08.429Z,9.53
2018-02-25T14:51:37.595Z,10.00
2018-02-25T14:54:05.923Z,10.47
2018-02-25T14:56:34.038Z,9.07
2018-02-25T14:59:02.173Z,8.27
2018-02-25T15:01:31.056Z,8.00
2018-02-25T15:04:00.008Z,13.10
2018-02-25T15:06:28.146Z,9.80
2018-02-25T15:08:56.355Z,7.10
2018-02-25T15:11:24.497Z,8.63
2018-02-25T15:13:52.649Z,8.63
2018-02-25T15:16:22.207Z,10.90
2018-02-25T15:18:50.368Z,9.30
2018-02-25T15:21:18.512Z,8.87
2018-02-25T15:23:46.604Z,7.40
2018-02-25T15:26:14.736Z,8.33
2018-02-25T15:28:42.886Z,7.73
2018-02-25T15:31:11.856Z,7.17
2018-02-25T15:33:40.911Z,12.37
2018-02-25T15:36:09.803Z,6.87
2018-02-25T15:38:38.049Z,10.33
2018-02-25T15:41:06.190Z,11.50
2018-02-25T15:43:34.317Z,7.90
2018-02-25T15:46:02.459Z,9.37
2018-02-25T15:48:30.671Z,8.80
2018-02-25T15:50:58.893Z,10.33
2018-02-25T15:53:29.265Z,7.43
2018-02-25T15:55:57.395Z,9.53
2018-02-25T15:58:25.523Z,10.83
2018-02-25T16:01:01.489Z,9.23
2018-02-25T16:03:29.583Z,8.20
2018-02-25T16:05:57.747Z,8.83
2018-02-25T16:08:25.864Z,8.97
2018-02-25T16:10:53.972Z,9.47
2018-02-25T16:13:22.105Z,10.93
2018-02-25T16:15:50.223Z,10.27
2018-02-25T16:18:18.347Z,8.50
2018-02-25T16:20:46.500Z,8.17
2018-02-25T16:23:14.682Z,8.77
2018-02-25T16:25:42.879Z,8.80
2018-02-25T16:28:11.123Z,10.83
2018-02-25T16:30:39.754Z,11.97
2018-02-25T16:33:07.908Z,10.67
2018-02-25T16:35:40.869Z,9.87
2018-02-25T16:38:09.012Z,11.20
2018-02-25T16:40:37.146Z,15.33
2018-02-25T16:43:05.447Z,9.43
2018-02-25T16:45:33.724Z,10.43
2018-02-25T16:48:01.963Z,8.97
2018-02-25T16:50:30.856Z,9.73
2018-02-25T16:52:59.025Z,10.37
2018-02-25T16:55:27.169Z,12.83
2018-02-25T16:57:55.315Z,10.93
2018-02-25T17:00:23.442Z,10.13
2018-02-25T17:02:51.598Z,10.37
2018-02-25T17:05:19.767Z,10.50
2018-02-25T17:07:48.217Z,8.13
2018-02-25T17:10:16.797Z,10.47
2018-02-25T17:12:44.931Z,10.47
2018-02-25T17:15:13.089Z,10.27
2018-02-25T17:17:41.214Z,13.53
2018-02-25T17:20:10.131Z,10.60
2018-02-25T17:22:38.250Z,10.37
2018-02-25T17:25:06.413Z,12.73
2018-02-25T17:27:34.583Z,11.50
2018-02-25T17:30:02.712Z,9.97
2018-02-25T17:32:30.821Z,9.43
2018-02-25T17:34:58.952Z,11.67
2018-02-25T17:37:27.077Z,15.03
2018-02-25T17:39:56.208Z,9.93
2018-02-25T17:42:24.384Z,14.13
2018-02-25T17:44:53.682Z,13.50
2018-02-25T17:47:21.801Z,12.40
2018-02-25T17:49:50.755Z,11.27
2018-02-25T17:52:18.876Z,10.30
2018-02-25T17:54:46.979Z,9.60
2018-02-25T17:57:15.886Z,15.80
2018-02-25T17:59:44.108Z,13.20
2018-02-25T18:02:12.360Z,13.40
2018-02-25T18:04:40.506Z,12.87
2018-02-25T18:07:09.400Z,10.73
2018-02-25T18:09:37.532Z,10.40
2018-02-25T18:25:00.699Z,8.53
2018-02-25T18:27:29.642Z,16.63
2018-02-25T18:29:57.839Z,10.07
2018-02-25T18:32:25.979Z,13.70
2018-02-25T18:34:54.101Z,9.57
2018-02-25T18:37:22.243Z,10.67
2018-02-25T18:39:50.375Z,10.70
2018-02-25T18:42:18.543Z,10.37
2018-02-25T18:44:46.682Z,10.27
2018-02-25T18:47:14.830Z,12.60
2018-02-25T18:49:43.300Z,13.97
2018-02-25T18:52:11.435Z,10.60
2018-02-25T18:54:39.605Z,8.50
2018-02-25T18:57:08.616Z,10.00
2018-02-25T18:59:36.725Z,11.50
2018-02-25T19:02:05.690Z,10.20
2018-02-25T19:04:33.795Z,10.90
2018-02-25T19:07:01.900Z,10.67
2018-02-25T19:09:30.067Z,17.80
2018-02-25T19:11:58.247Z,11.83
2018-02-25T19:14:26.384Z,10.90
2018-02-25T19:16:54.489Z,12.97
2018-02-25T19:19:22.616Z,10.47
2018-02-25T19:21:50.748Z,14.73
2018-02-25T19:24:18.912Z,13.83
2018-02-25T19:26:47.817Z,14.37
2018-02-25T19:29:16.056Z,12.30
2018-02-25T19:31:44.953Z,11.80
2018-02-25T19:34:13.083Z,11.17
2018-02-25T19:36:47.547Z,10.50
2018-02-25T19:39:22.104Z,13.80
2018-02-25T19:41:54.963Z,10.77
2018-02-25T19:44:23.138Z,12.37
2018-02-25T19:46:51.343Z,12.00
2018-02-25T19:49:19.639Z,20.07
2018-02-25T19:51:48.597Z,13.63
2018-02-25T19:54:16.760Z,13.67
2018-02-25T19:56:49.005Z,15.57
2018-02-25T19:59:17.143Z,14.77
2018-02-25T20:01:45.260Z,9.87
2018-02-25T20:04:13.393Z,13.23
2018-02-25T20:06:41.522Z,18.70
2018-02-25T20:09:09.698Z,15.33
2018-02-25T20:11:37.831Z,21.77
2018-02-25T20:14:06.048Z,13.50
2018-02-25T20:16:34.179Z,14.87
2018-02-25T20:19:02.338Z,12.97
2018-02-25T20:21:31.509Z,15.33
2018-02-25T20:23:59.704Z,16.73
2018-02-25T20:26:27.850Z,14.43
2018-02-25T20:28:56.675Z,13.13
2018-02-25T20:31:29.048Z,13.37
2018-02-25T20:33:57.166Z,15.03
2018-02-25T20:36:25.291Z,12.13
2018-02-25T20:38:53.408Z,16.03
2018-02-25T20:41:21.841Z,18.63
2018-02-25T20:43:49.944Z,12.93
2018-02-25T20:46:18.070Z,13.13
2018-02-25T20:48:46.360Z,17.80
2018-02-25T20:51:14.468Z,16.47
2018-02-25T20:53:42.610Z,18.37
2018-02-25T20:56:10.732Z,21.07
2018-02-25T20:58:39.468Z,15.20
2018-02-25T21:01:07.593Z,16.10
2018-02-25T21:03:35.736Z,14.70
2018-02-25T21:06:03.928Z,19.13
2018-02-25T21:08:32.346Z,17.13
2018-02-25T21:11:00.459Z,22.63
2018-02-25T21:13:28.599Z,17.23
2018-02-25T21:15:57.137Z,18.43
2018-02-25T21:18:25.264Z,19.80
2018-02-25T21:20:53.859Z,17.60
2018-02-25T21:23:22.011Z,16.77
2018-02-25T21:25:50.177Z,16.70
2018-02-25T21:28:18.454Z,22.77
2018-02-25T21:30:46.653Z,15.17
2018-02-25T21:33:14.779Z,13.83
2018-02-25T21:48:37.989Z,14.90
2018-02-25T21:51:06.098Z,15.57
2018-02-25T21:53:39.799Z,18.50
2018-02-25T21:56:14.223Z,10.93
2018-02-25T21:58:48.868Z,21.33
2018-02-25T22:01:23.002Z,18.17
2018-02-25T22:03:56.632Z,13.80
2018-02-25T22:06:25.331Z,12.97
2018-02-25T22:08:53.540Z,21.07
2018-02-25T22:11:21.746Z,14.70
2018-02-25T22:13:49.899Z,17.70
2018-02-25T22:16:18.092Z,22.57
2018-02-25T22:18:46.202Z,19.43
2018-02-25T22:21:14.338Z,18.17
2018-02-25T22:23:42.443Z,16.70
2018-02-25T22:26:10.569Z,24.97
2018-02-25T22:28:38.692Z,20.70
2018-02-25T22:31:06.850Z,16.33
2018-02-25T22:33:35.082Z,16.77
2018-02-25T22:36:04.187Z,19.07
2018-02-25T22:38:32.362Z,21.60
2018-02-25T22:41:00.475Z,15.67
2018-02-25T22:43:28.595Z,19.33
2018-02-25T22:45:56.714Z,18.80
2018-02-25T22:48:24.837Z,22.80
2018-02-25T22:50:52.961Z,21.97
2018-02-25T22:53:21.072Z,14.63
2018-02-25T22:55:49.285Z,20.80
2018-02-25T22:58:17.407Z,18.50
2018-02-25T23:00:45.587Z,14.20
2018-02-25T23:03:13.703Z,18.50
2018-02-25T23:05:41.815Z,14.63
2018-02-25T23:08:09.939Z,12.80
2018-02-25T23:10:38.111Z,15.93
2018-02-25T23:13:06.236Z,16.17
2018-02-25T23:15:34.408Z,14.63
2018-02-25T23:18:02.563Z,14.97
2018-02-25T23:20:31.464Z,14.67
2018-02-25T23:22:59.648Z,18.03
2018-02-25T23:25:27.757Z,20.10
2018-02-25T23:27:55.893Z,14.80
2018-02-25T23:30:23.992Z,13.43
2018-02-25T23:32:52.179Z,13.10
2018-02-25T23:35:20.327Z,12.20
2018-02-25T23:37:48.528Z,11.50
2018-02-25T23:40:16.760Z,15.57
2018-02-25T23:42:45.064Z,8.40
2018-02-25T23:45:13.322Z,11.67
2018-02-25T23:47:41.520Z,11.77
2018-02-25T23:50:09.704Z,8.63
2018-02-25T23:52:37.835Z,12.83
2018-02-25T23:55:05.954Z,13.80
2018-02-25T23:57:34.052Z,10.47
